createdAt,value
2023-04-29T00:21:25.690Z,27.61
2023-04-29T00:22:25.892Z,27.71
2023-04-29T00:23:26.151Z,27.45
2023-04-29T00:24:26.390Z,27.71
2023-04-29T00:25:27.987Z,27.82
2023-04-29T00:26:28.616Z,27.34
2023-04-29T00:27:29.726Z,27.39
2023-04-29T00:28:27.934Z,27.45
2023-04-29T00:29:30.765Z,27.55
2023-04-29T00:30:29.920Z,27.45
2023-04-29T00:31:27.847Z,27.45
2023-04-29T00:32:28.080Z,27.55
2023-04-29T00:33:30.501Z,27.71
2023-04-29T00:34:29.690Z,27.34
2023-04-29T00:35:31.416Z,26.96
2023-04-29T00:36:31.568Z,27.50
2023-04-29T00:37:30.963Z,27.45
2023-04-29T00:38:30.476Z,27.18
2023-04-29T00:39:29.694Z,27.34
2023-04-29T00:40:31.392Z,27.45
2023-04-29T00:41:30.040Z,27.55
2023-04-29T00:42:31.151Z,27.18
2023-04-29T00:43:30.297Z,27.29
2023-04-29T00:44:32.483Z,26.96
2023-04-29T00:45:31.676Z,27.71
2023-04-29T00:46:30.939Z,27.45
2023-04-29T00:47:33.115Z,27.34
2023-04-29T00:48:32.750Z,27.18
2023-04-29T00:49:31.537Z,27.39
2023-04-29T00:50:33.781Z,27.55
2023-04-29T00:51:34.957Z,27.45
2023-04-29T00:52:33.303Z,26.96
2023-04-29T00:53:32.541Z,27.45
2023-04-29T00:54:33.676Z,27.18
2023-04-29T00:55:34.822Z,27.55
2023-04-29T00:56:34.537Z,27.02
2023-04-29T00:57:35.325Z,27.18
2023-04-29T00:58:33.556Z,26.96
2023-04-29T00:59:33.770Z,27.34
2023-04-29T01:00:35.066Z,27.39
2023-04-29T01:01:35.186Z,27.23
2023-04-29T01:02:34.461Z,26.96
2023-04-29T01:03:36.354Z,27.34
2023-04-29T01:04:38.378Z,26.96
2023-04-29T01:05:46.173Z,27.61
2023-04-29T01:06:35.369Z,27.18
2023-04-29T01:07:37.660Z,27.12
2023-04-29T01:08:35.939Z,27.12
2023-04-29T01:09:36.085Z,27.12
2023-04-29T01:10:38.072Z,27.39
2023-04-29T01:11:38.717Z,27.39
2023-04-29T01:12:38.182Z,27.23
2023-04-29T01:13:41.255Z,27.12
2023-04-29T01:14:41.511Z,27.34
2023-04-29T01:15:42.613Z,27.12
2023-04-29T01:16:38.347Z,27.29
2023-04-29T01:17:40.250Z,27.45
2023-04-29T01:18:40.080Z,27.18
2023-04-29T01:19:42.220Z,27.34
2023-04-29T01:20:38.998Z,27.12
2023-04-29T01:21:39.151Z,27.29
2023-04-29T01:22:42.118Z,27.50
2023-04-29T01:23:40.979Z,26.96
2023-04-29T01:24:40.140Z,27.50
2023-04-29T01:25:44.894Z,27.18
2023-04-29T01:26:41.584Z,27.34
2023-04-29T01:27:41.687Z,27.02
2023-04-29T01:28:40.818Z,27.34
2023-04-29T01:29:40.984Z,27.55
2023-04-29T01:30:41.459Z,27.18
2023-04-29T01:31:41.624Z,27.12
2023-04-29T01:32:42.627Z,27.23
2023-04-29T01:33:43.848Z,27.55
2023-04-29T01:34:42.379Z,27.82
2023-04-29T01:36:43.695Z,27.02
2023-04-29T01:37:44.304Z,27.39
2023-04-29T01:38:42.451Z,27.34
2023-04-29T01:39:43.822Z,27.18
2023-04-29T01:40:42.951Z,26.96
2023-04-29T01:41:43.211Z,27.18
2023-04-29T01:42:45.453Z,26.96
2023-04-29T01:43:45.664Z,27.18
2023-04-29T01:44:44.876Z,27.34
2023-04-29T01:45:45.578Z,27.18
2023-04-29T01:46:44.520Z,27.18
2023-04-29T01:47:45.698Z,27.02
2023-04-29T01:48:44.418Z,27.39
2023-04-29T01:49:44.883Z,27.34
2023-04-29T01:50:47.160Z,27.18
2023-04-29T01:51:45.399Z,26.96
2023-04-29T01:52:47.109Z,27.02
2023-04-29T01:53:46.730Z,27.12
2023-04-29T01:54:49.492Z,27.29
2023-04-29T01:55:49.857Z,27.34
2023-04-29T01:56:49.520Z,27.12
2023-04-29T01:57:54.288Z,27.12
2023-04-29T01:58:46.967Z,27.45
2023-04-29T01:59:48.113Z,26.96
2023-04-29T02:00:48.373Z,27.39
2023-04-29T02:01:50.684Z,27.39
2023-04-29T02:02:49.477Z,27.34
2023-04-29T02:03:49.462Z,27.18
2023-04-29T02:04:49.096Z,27.18
2023-04-29T02:05:56.787Z,26.96
2023-04-29T02:06:49.898Z,27.12
2023-04-29T02:07:48.127Z,27.50
2023-04-29T02:08:49.540Z,27.18
2023-04-29T02:09:51.044Z,27.07
2023-04-29T02:10:51.489Z,27.18
2023-04-29T02:11:49.242Z,27.55
2023-04-29T02:12:51.585Z,27.18
2023-04-29T02:13:49.845Z,27.07
2023-04-29T02:14:50.689Z,27.50
2023-04-29T02:15:53.563Z,27.12
2023-04-29T02:16:52.559Z,27.18
2023-04-29T02:17:50.821Z,27.18
2023-04-29T02:18:51.799Z,26.96
2023-04-29T02:19:51.647Z,26.96
2023-04-29T02:20:51.573Z,27.18
2023-04-29T02:21:51.767Z,27.12
2023-04-29T02:22:53.953Z,26.96
2023-04-29T02:23:52.131Z,27.18
2023-04-29T02:24:52.308Z,27.18
2023-04-29T02:25:54.814Z,27.12
2023-04-29T02:26:55.193Z,27.02
2023-04-29T02:27:53.428Z,27.12
2023-04-29T02:28:53.695Z,26.96
2023-04-29T02:29:54.920Z,27.34
2023-04-29T02:30:54.323Z,27.34
2023-04-29T02:31:56.484Z,26.96
2023-04-29T02:32:57.435Z,27.18
2023-04-29T02:33:56.699Z,27.18
2023-04-29T02:34:57.151Z,26.96
2023-04-29T02:35:55.801Z,26.96
2023-04-29T02:36:58.446Z,27.02
2023-04-29T02:37:57.313Z,26.96
2023-04-29T02:38:57.457Z,27.18
2023-04-29T02:39:57.623Z,27.18
2023-04-29T02:40:58.827Z,26.96
2023-04-29T02:41:58.203Z,27.18
2023-04-29T02:42:57.523Z,27.07
2023-04-29T02:43:58.828Z,27.07
2023-04-29T02:45:01.092Z,27.18
2023-04-29T02:46:00.636Z,26.96
2023-04-29T02:46:59.580Z,27.12
2023-04-29T02:48:00.513Z,27.29
2023-04-29T02:48:58.769Z,27.39
2023-04-29T02:49:59.246Z,27.12
2023-04-29T02:50:59.451Z,27.12
2023-04-29T02:52:02.100Z,27.39
2023-04-29T02:53:00.693Z,27.18
2023-04-29T02:54:00.004Z,27.18
2023-04-29T02:55:00.526Z,27.07
2023-04-29T02:56:02.866Z,26.96
2023-04-29T02:57:01.060Z,27.18
2023-04-29T02:58:01.759Z,26.96
2023-04-29T02:59:01.642Z,27.18
2023-04-29T03:00:02.954Z,27.39
2023-04-29T03:01:02.190Z,27.12
2023-04-29T03:02:02.360Z,27.18
2023-04-29T03:03:03.697Z,26.96
2023-04-29T03:04:04.187Z,27.34
2023-04-29T03:05:05.853Z,27.12
2023-04-29T03:06:04.890Z,27.29
2023-04-29T03:07:05.952Z,26.96
2023-04-29T03:08:03.890Z,27.18
2023-04-29T03:09:08.753Z,26.96
2023-04-29T03:10:04.556Z,27.18
2023-04-29T03:11:04.786Z,26.96
2023-04-29T03:12:06.026Z,27.39
2023-04-29T03:13:09.222Z,27.39
2023-04-29T03:14:05.219Z,27.18
2023-04-29T03:15:08.084Z,27.18
2023-04-29T03:16:05.883Z,26.96
2023-04-29T03:17:08.463Z,27.18
2023-04-29T03:18:06.265Z,27.18
2023-04-29T03:19:06.548Z,27.18
2023-04-29T03:20:07.883Z,27.18
2023-04-29T03:21:07.108Z,27.12
2023-04-29T03:22:07.336Z,27.07
2023-04-29T03:23:07.507Z,27.12
2023-04-29T03:24:08.736Z,27.39
2023-04-29T03:25:20.499Z,27.12
2023-04-29T03:26:10.326Z,27.12
2023-04-29T03:27:09.579Z,27.18
2023-04-29T03:28:10.304Z,27.12
2023-04-29T03:29:09.075Z,27.12
2023-04-29T03:30:11.371Z,27.18
2023-04-29T03:31:11.154Z,27.18
2023-04-29T03:32:11.800Z,27.18
2023-04-29T03:33:10.212Z,27.12
2023-04-29T03:34:13.950Z,27.07
2023-04-29T03:35:15.854Z,27.29
2023-04-29T03:36:12.319Z,27.18
2023-04-29T03:38:13.739Z,27.18
2023-04-29T03:39:13.125Z,27.23
2023-04-29T03:40:11.927Z,27.29
2023-04-29T03:41:12.207Z,27.18
2023-04-29T03:42:12.399Z,26.96
2023-04-29T03:43:12.609Z,27.18
2023-04-29T03:44:13.338Z,26.96
2023-04-29T03:45:13.148Z,27.18
2023-04-29T03:46:13.479Z,27.18
2023-04-29T03:47:13.666Z,26.96
2023-04-29T03:48:14.909Z,27.12
2023-04-29T03:49:14.200Z,27.12
2023-04-29T03:50:14.675Z,27.18
2023-04-29T03:51:15.824Z,27.29
2023-04-29T03:52:16.939Z,27.12
2023-04-29T03:53:17.745Z,27.18
2023-04-29T03:54:18.429Z,27.39
2023-04-29T03:55:15.616Z,27.18
2023-04-29T03:56:17.337Z,27.12
2023-04-29T03:57:18.597Z,27.18
2023-04-29T03:58:16.333Z,27.12
2023-04-29T03:59:16.464Z,27.18
2023-04-29T04:00:17.759Z,27.18
2023-04-29T04:01:17.982Z,27.07
2023-04-29T04:02:18.347Z,27.18
2023-04-29T04:03:19.608Z,27.39
2023-04-29T04:04:18.144Z,27.34
2023-04-29T04:05:20.543Z,27.18
2023-04-29T04:06:19.166Z,26.96
2023-04-29T04:07:20.519Z,26.96
2023-04-29T04:08:18.726Z,26.96
2023-04-29T04:09:18.876Z,26.96
2023-04-29T04:10:22.105Z,27.34
2023-04-29T04:11:19.806Z,26.96
2023-04-29T04:12:20.100Z,27.34
2023-04-29T04:13:21.420Z,27.12
2023-04-29T04:14:22.114Z,27.07
2023-04-29T04:15:21.768Z,27.02
2023-04-29T04:16:23.905Z,26.96
2023-04-29T04:17:22.064Z,27.18
2023-04-29T04:18:22.867Z,27.29
2023-04-29T04:19:21.602Z,27.02
2023-04-29T04:20:21.762Z,27.18
2023-04-29T04:21:21.944Z,26.96
2023-04-29T04:22:22.133Z,27.18
2023-04-29T04:23:22.311Z,27.39
2023-04-29T04:24:23.928Z,27.12
2023-04-29T04:25:24.298Z,27.12
2023-04-29T04:26:23.063Z,27.18
2023-04-29T04:27:23.305Z,26.96
2023-04-29T04:28:25.061Z,27.12
2023-04-29T04:29:23.829Z,27.39
2023-04-29T04:30:25.476Z,26.96
2023-04-29T04:31:26.588Z,27.12
2023-04-29T04:32:26.540Z,27.12
2023-04-29T04:33:25.792Z,27.29
2023-04-29T04:34:28.042Z,27.18
2023-04-29T04:35:36.375Z,27.02
2023-04-29T04:36:27.510Z,27.18
2023-04-29T04:37:27.144Z,27.18
2023-04-29T04:38:26.843Z,27.02
2023-04-29T04:39:28.001Z,27.07
2023-04-29T04:40:28.115Z,27.18
2023-04-29T04:41:26.395Z,26.96
2023-04-29T04:42:26.582Z,27.18
2023-04-29T04:43:26.801Z,27.39
2023-04-29T04:44:29.038Z,26.96
2023-04-29T04:45:28.769Z,26.96
2023-04-29T04:46:32.467Z,27.18
2023-04-29T04:47:30.424Z,27.18
2023-04-29T04:48:28.124Z,27.12
2023-04-29T04:49:29.769Z,27.02
2023-04-29T04:50:28.399Z,27.12
2023-04-29T04:51:43.199Z,27.18
2023-04-29T04:52:32.886Z,27.29
2023-04-29T04:53:30.601Z,27.18
2023-04-29T04:54:31.716Z,27.18
2023-04-29T04:55:29.556Z,27.12
2023-04-29T04:56:33.084Z,26.96
2023-04-29T04:57:30.796Z,27.07
2023-04-29T04:58:31.020Z,26.96
2023-04-29T04:59:32.175Z,27.12
2023-04-29T05:00:30.361Z,26.96
2023-04-29T05:01:33.593Z,27.12
2023-04-29T05:02:33.227Z,27.12
2023-04-29T05:03:39.094Z,27.39
2023-04-29T05:04:34.864Z,27.18
2023-04-29T05:06:33.790Z,27.18
2023-04-29T05:07:40.074Z,27.18
2023-04-29T05:08:33.821Z,27.18
2023-04-29T05:09:32.136Z,27.12
2023-04-29T05:10:32.855Z,27.18
2023-04-29T05:11:33.419Z,26.96
2023-04-29T05:12:32.630Z,26.96
2023-04-29T05:13:32.805Z,27.18
2023-04-29T05:14:33.014Z,27.18
2023-04-29T05:15:37.220Z,27.18
2023-04-29T05:16:33.424Z,27.12
2023-04-29T05:17:33.592Z,27.18
2023-04-29T05:18:33.706Z,27.39
2023-04-29T05:19:35.061Z,27.18
2023-04-29T05:20:34.277Z,27.02
2023-04-29T05:21:34.551Z,27.18
2023-04-29T05:22:35.710Z,27.18
2023-04-29T05:23:35.429Z,27.18
2023-04-29T05:24:37.282Z,27.18
2023-04-29T05:25:40.404Z,27.18
2023-04-29T05:26:35.600Z,27.18
2023-04-29T05:27:35.836Z,27.12
2023-04-29T05:28:36.098Z,26.96
2023-04-29T05:29:37.071Z,26.96
2023-04-29T05:30:40.987Z,27.12
2023-04-29T05:31:37.559Z,27.07
2023-04-29T05:32:37.521Z,26.96
2023-04-29T05:33:38.400Z,27.39
2023-04-29T05:34:38.560Z,27.18
2023-04-29T05:36:38.474Z,27.02
2023-04-29T05:37:40.322Z,26.96
2023-04-29T05:38:39.020Z,26.96
2023-04-29T05:39:39.113Z,26.96
2023-04-29T05:40:39.262Z,27.23
2023-04-29T05:41:39.793Z,27.07
2023-04-29T05:42:40.079Z,26.96
2023-04-29T05:43:38.968Z,27.39
2023-04-29T05:44:39.971Z,27.18
2023-04-29T05:45:49.546Z,27.39
2023-04-29T05:46:41.416Z,27.18
2023-04-29T05:47:39.669Z,27.18
2023-04-29T05:48:41.816Z,27.12
2023-04-29T05:49:39.960Z,27.02
2023-04-29T05:50:40.073Z,27.39
2023-04-29T05:51:40.407Z,27.29
2023-04-29T05:52:40.612Z,27.12
2023-04-29T05:53:41.605Z,27.39
2023-04-29T05:54:43.304Z,27.18
2023-04-29T05:55:42.556Z,27.34
2023-04-29T05:56:43.256Z,27.18
2023-04-29T05:57:42.387Z,26.96
2023-04-29T05:58:42.521Z,26.96
2023-04-29T05:59:43.738Z,27.23
2023-04-29T06:00:43.617Z,27.39
2023-04-29T06:01:42.262Z,27.29
2023-04-29T06:02:54.887Z,26.96
2023-04-29T06:03:44.386Z,27.12
2023-04-29T06:04:47.763Z,27.39
2023-04-29T06:06:45.338Z,27.07
2023-04-29T06:07:44.380Z,26.96
2023-04-29T06:08:43.566Z,27.12
2023-04-29T06:09:44.707Z,27.12
2023-04-29T06:10:47.218Z,27.18
2023-04-29T06:11:44.061Z,27.55
2023-04-29T06:12:44.213Z,27.55
2023-04-29T06:13:46.354Z,27.18
2023-04-29T06:14:45.507Z,27.02
2023-04-29T06:15:46.372Z,27.18
2023-04-29T06:16:45.881Z,26.96
2023-04-29T06:17:46.137Z,27.18
2023-04-29T06:18:45.988Z,27.18
2023-04-29T06:19:47.782Z,27.39
2023-04-29T06:20:46.541Z,27.02
2023-04-29T06:21:46.680Z,27.18
2023-04-29T06:22:46.932Z,27.18
2023-04-29T06:23:49.209Z,27.18
2023-04-29T06:24:48.076Z,27.12
2023-04-29T06:25:49.395Z,27.12
2023-04-29T06:26:49.926Z,27.23
2023-04-29T06:27:49.634Z,27.50
2023-04-29T06:28:49.274Z,27.39
2023-04-29T06:29:50.886Z,26.96
2023-04-29T06:30:49.580Z,27.18
2023-04-29T06:31:51.382Z,27.39
2023-04-29T06:32:50.504Z,27.34
2023-04-29T06:33:49.826Z,27.29
2023-04-29T06:34:49.968Z,27.07
2023-04-29T06:35:53.900Z,27.50
2023-04-29T06:36:51.123Z,27.34
2023-04-29T06:37:50.812Z,27.12
2023-04-29T06:38:50.991Z,27.39
2023-04-29T06:39:52.782Z,27.07
2023-04-29T06:40:52.697Z,27.29
2023-04-29T06:41:52.024Z,26.96
2023-04-29T06:42:53.664Z,27.07
2023-04-29T06:43:53.193Z,26.96
2023-04-29T06:44:53.432Z,26.96
2023-04-29T06:45:54.443Z,27.39
2023-04-29T06:46:53.221Z,27.18
2023-04-29T06:47:55.426Z,27.18
2023-04-29T06:48:53.296Z,27.12
2023-04-29T06:49:53.928Z,27.18
2023-04-29T06:50:53.869Z,27.34
2023-04-29T06:51:54.081Z,26.96
2023-04-29T06:52:54.317Z,27.39
2023-04-29T06:53:56.645Z,27.18
2023-04-29T06:54:55.434Z,27.12
2023-04-29T06:55:56.018Z,27.12
2023-04-29T06:56:55.876Z,27.07
2023-04-29T06:57:55.934Z,27.29
2023-04-29T06:58:55.374Z,27.12
2023-04-29T06:59:59.351Z,27.55
2023-04-29T07:00:56.446Z,27.18
2023-04-29T07:01:56.688Z,27.07
2023-04-29T07:02:57.233Z,27.45
2023-04-29T07:03:56.319Z,26.96
2023-04-29T07:04:57.346Z,27.12
2023-04-29T07:05:58.345Z,27.18
2023-04-29T07:06:59.129Z,27.23
2023-04-29T07:07:57.613Z,27.07
2023-04-29T07:08:57.423Z,27.23
2023-04-29T07:09:57.682Z,27.55
2023-04-29T07:10:58.883Z,26.96
2023-04-29T07:11:58.206Z,26.96
2023-04-29T07:12:58.434Z,27.18
2023-04-29T07:13:59.574Z,27.18
2023-04-29T07:14:58.946Z,27.07
2023-04-29T07:15:59.929Z,27.55
2023-04-29T07:16:59.230Z,26.96
2023-04-29T07:17:59.580Z,26.96
2023-04-29T07:19:00.632Z,26.96
2023-04-29T07:20:01.237Z,27.23
2023-04-29T07:21:01.484Z,27.07
2023-04-29T07:22:00.165Z,27.02
2023-04-29T07:23:00.306Z,27.18
2023-04-29T07:24:02.420Z,26.96
2023-04-29T07:25:02.652Z,27.07
2023-04-29T07:26:00.816Z,27.23
2023-04-29T07:27:01.101Z,27.23
2023-04-29T07:28:01.444Z,27.12
2023-04-29T07:29:03.632Z,27.12
2023-04-29T07:30:03.736Z,27.34
2023-04-29T07:31:02.183Z,27.29
2023-04-29T07:32:04.286Z,27.12
2023-04-29T07:33:02.543Z,27.18
2023-04-29T07:34:03.857Z,27.18
2023-04-29T07:35:04.126Z,27.18
2023-04-29T07:36:04.254Z,27.12
2023-04-29T07:37:04.881Z,27.29
2023-04-29T07:38:04.145Z,27.29
2023-04-29T07:39:03.852Z,27.02
2023-04-29T07:40:04.184Z,27.34
2023-04-29T07:41:04.603Z,27.18
2023-04-29T07:42:05.724Z,26.96
2023-04-29T07:43:04.914Z,27.18
2023-04-29T07:44:05.928Z,27.29
2023-04-29T07:45:05.248Z,27.39
2023-04-29T07:46:05.554Z,26.96
2023-04-29T07:47:05.799Z,27.18
2023-04-29T07:48:05.988Z,27.18
2023-04-29T07:49:08.223Z,26.96
2023-04-29T07:50:06.431Z,27.18
2023-04-29T07:51:08.079Z,27.12
2023-04-29T07:52:08.797Z,27.18
2023-04-29T07:53:07.261Z,26.96
2023-04-29T07:54:08.261Z,26.96
2023-04-29T07:55:09.388Z,27.23
2023-04-29T07:56:07.862Z,27.02
2023-04-29T07:57:09.228Z,26.96
2023-04-29T07:58:10.372Z,27.18
2023-04-29T07:59:08.700Z,27.18
2023-04-29T08:00:09.385Z,26.96
2023-04-29T08:01:09.992Z,27.12
2023-04-29T08:02:09.156Z,27.29
2023-04-29T08:03:09.531Z,27.29
2023-04-29T08:04:09.537Z,27.55
2023-04-29T08:05:10.666Z,26.96
2023-04-29T08:06:10.852Z,27.18
2023-04-29T08:07:10.115Z,26.96
2023-04-29T08:08:10.246Z,26.96
2023-04-29T08:09:11.826Z,26.96
2023-04-29T08:10:11.971Z,27.34
2023-04-29T08:11:11.746Z,27.39
2023-04-29T08:12:12.318Z,27.18
2023-04-29T08:13:11.035Z,27.18
2023-04-29T08:14:11.728Z,27.07
2023-04-29T08:15:12.149Z,27.34
2023-04-29T08:16:12.805Z,27.12
2023-04-29T08:17:12.740Z,26.96
2023-04-29T08:18:13.368Z,27.50
2023-04-29T08:19:12.785Z,27.07
2023-04-29T08:20:12.934Z,26.96
2023-04-29T08:21:13.205Z,27.12
2023-04-29T08:22:15.130Z,27.55
2023-04-29T08:23:13.787Z,27.12
2023-04-29T08:24:14.359Z,27.12
2023-04-29T08:25:14.602Z,27.23
2023-04-29T08:26:14.262Z,27.02
2023-04-29T08:27:15.939Z,27.12
2023-04-29T08:28:14.709Z,27.18
2023-04-29T08:29:14.873Z,26.96
2023-04-29T08:30:15.635Z,27.23
2023-04-29T08:31:15.356Z,27.18
2023-04-29T08:32:15.603Z,27.02
2023-04-29T08:33:18.182Z,26.96
2023-04-29T08:34:16.889Z,26.96
2023-04-29T08:35:19.126Z,27.18
2023-04-29T08:36:16.477Z,27.07
2023-04-29T08:37:18.390Z,27.23
2023-04-29T08:38:16.913Z,27.29
2023-04-29T08:39:17.053Z,27.34
2023-04-29T08:40:17.250Z,27.12
2023-04-29T08:41:18.356Z,26.96
2023-04-29T08:42:17.493Z,27.07
2023-04-29T08:43:17.688Z,27.23
2023-04-29T08:44:18.902Z,27.39
2023-04-29T08:45:20.686Z,27.12
2023-04-29T08:46:20.361Z,26.96
2023-04-29T08:47:18.637Z,27.07
2023-04-29T08:48:20.454Z,27.18
2023-04-29T08:49:19.813Z,27.02
2023-04-29T08:50:20.273Z,27.07
2023-04-29T08:51:20.067Z,27.18
2023-04-29T08:52:21.577Z,27.18
2023-04-29T08:53:21.043Z,27.39
2023-04-29T08:54:22.182Z,27.12
2023-04-29T08:55:21.098Z,27.39
2023-04-29T08:56:20.809Z,27.34
2023-04-29T08:57:23.900Z,27.55
2023-04-29T08:58:21.227Z,27.55
2023-04-29T08:59:22.835Z,27.39
2023-04-29T09:00:22.373Z,27.02
2023-04-29T09:01:23.329Z,27.18
2023-04-29T09:02:23.716Z,26.96
2023-04-29T09:03:24.518Z,27.18
2023-04-29T09:04:23.044Z,26.96
2023-04-29T09:06:27.903Z,27.23
2023-04-29T09:07:25.066Z,27.55
2023-04-29T09:08:23.247Z,27.18
2023-04-29T09:09:25.399Z,27.12
2023-04-29T09:10:23.580Z,27.18
2023-04-29T09:11:25.722Z,27.34
2023-04-29T09:12:23.913Z,27.02
2023-04-29T09:13:26.032Z,27.39
2023-04-29T09:14:26.124Z,26.96
2023-04-29T09:15:26.388Z,27.39
2023-04-29T09:16:24.704Z,27.18
2023-04-29T09:17:25.613Z,27.45
2023-04-29T09:18:27.243Z,27.55
2023-04-29T09:19:25.419Z,27.18
2023-04-29T09:20:25.697Z,27.55
2023-04-29T09:21:25.915Z,27.18
2023-04-29T09:22:26.212Z,27.55
2023-04-29T09:23:26.410Z,27.34
2023-04-29T09:24:26.657Z,27.34
2023-04-29T09:25:31.352Z,27.55
2023-04-29T09:26:27.095Z,27.66
2023-04-29T09:27:28.019Z,27.45
2023-04-29T09:28:28.706Z,27.61
2023-04-29T09:29:28.120Z,27.50
2023-04-29T09:30:28.406Z,27.23
2023-04-29T09:31:29.126Z,27.88
2023-04-29T09:32:28.795Z,27.55
2023-04-29T09:33:31.307Z,27.55
2023-04-29T09:34:29.909Z,27.61
2023-04-29T09:35:40.674Z,27.61
2023-04-29T09:36:29.614Z,27.66
2023-04-29T09:37:31.245Z,27.71
2023-04-29T09:38:31.622Z,27.55
2023-04-29T09:39:31.216Z,27.66
2023-04-29T09:40:30.442Z,27.55
2023-04-29T09:41:30.792Z,27.55
2023-04-29T09:42:32.294Z,27.55
2023-04-29T09:43:31.036Z,27.71
2023-04-29T09:44:34.285Z,27.55
2023-04-29T09:45:36.102Z,27.66
2023-04-29T09:46:31.432Z,27.55
2023-04-29T09:47:31.658Z,27.71
2023-04-29T09:48:31.833Z,27.55
2023-04-29T09:49:32.320Z,27.55
2023-04-29T09:50:31.986Z,27.66
2023-04-29T09:51:32.117Z,27.55
2023-04-29T09:52:32.617Z,27.77
2023-04-29T09:53:32.503Z,27.55
2023-04-29T09:54:32.228Z,27.55
2023-04-29T09:55:36.424Z,27.55
2023-04-29T09:56:34.588Z,27.55
2023-04-29T09:57:32.718Z,27.55
2023-04-29T09:58:35.856Z,27.55
2023-04-29T09:59:34.024Z,27.55
2023-04-29T10:00:33.139Z,27.55
2023-04-29T10:01:34.301Z,27.55
2023-04-29T10:02:35.115Z,27.71
2023-04-29T10:03:35.943Z,27.61
2023-04-29T10:04:34.791Z,27.82
2023-04-29T10:05:37.175Z,27.55
2023-04-29T10:06:36.779Z,27.55
2023-04-29T10:07:35.156Z,27.55
2023-04-29T10:08:36.394Z,27.55
2023-04-29T10:09:36.694Z,27.61
2023-04-29T10:10:38.491Z,27.55
2023-04-29T10:11:36.194Z,27.55
2023-04-29T10:12:37.880Z,27.55
2023-04-29T10:13:37.267Z,27.55
2023-04-29T10:14:37.808Z,27.66
2023-04-29T10:15:38.379Z,27.55
2023-04-29T10:16:37.021Z,27.55
2023-04-29T10:17:39.165Z,27.55
2023-04-29T10:18:39.320Z,27.55
2023-04-29T10:19:37.565Z,27.55
2023-04-29T10:20:37.689Z,27.55
2023-04-29T10:21:38.639Z,27.55
2023-04-29T10:22:39.113Z,27.55
2023-04-29T10:23:40.122Z,27.55
2023-04-29T10:24:39.194Z,27.55
2023-04-29T10:25:39.288Z,27.55
2023-04-29T10:26:38.388Z,27.55
2023-04-29T10:27:38.903Z,27.55
2023-04-29T10:28:39.807Z,27.55
2023-04-29T10:29:40.925Z,27.55
2023-04-29T10:30:40.552Z,27.55
2023-04-29T10:31:41.215Z,27.55
2023-04-29T10:32:50.387Z,27.55
2023-04-29T10:33:40.801Z,27.55
2023-04-29T10:34:41.690Z,27.55
2023-04-29T10:35:42.677Z,27.55
2023-04-29T10:36:42.590Z,27.55
2023-04-29T10:37:41.194Z,27.55
2023-04-29T10:38:42.297Z,27.55
2023-04-29T10:39:42.053Z,27.55
2023-04-29T10:40:42.519Z,27.55
2023-04-29T10:41:42.518Z,27.55
2023-04-29T10:42:43.060Z,27.66
2023-04-29T10:43:42.998Z,27.55
2023-04-29T10:44:44.233Z,27.55
2023-04-29T10:45:42.970Z,27.55
2023-04-29T10:46:45.120Z,27.55
2023-04-29T10:47:43.498Z,27.55
2023-04-29T10:48:46.345Z,27.55
2023-04-29T10:49:44.950Z,27.55
2023-04-29T10:50:44.968Z,27.55
2023-04-29T10:51:45.795Z,27.55
2023-04-29T10:52:46.400Z,27.55
2023-04-29T10:53:46.692Z,27.55
2023-04-29T10:54:45.861Z,27.55
2023-04-29T10:55:46.036Z,27.55
2023-04-29T10:56:45.373Z,27.55
2023-04-29T10:57:45.920Z,27.34
2023-04-29T10:58:45.852Z,27.55
2023-04-29T10:59:46.208Z,27.55
2023-04-29T11:00:48.349Z,27.55
2023-04-29T11:01:49.109Z,27.55
2023-04-29T11:02:47.960Z,27.55
2023-04-29T11:03:48.564Z,27.55
2023-04-29T11:04:48.311Z,27.55
2023-04-29T11:05:48.434Z,27.55
2023-04-29T11:06:48.480Z,27.55
2023-04-29T11:07:47.675Z,27.55
2023-04-29T11:08:48.869Z,27.55
2023-04-29T11:09:48.897Z,27.55
2023-04-29T11:10:49.636Z,27.55
2023-04-29T11:11:49.492Z,27.55
2023-04-29T11:12:48.649Z,27.55
2023-04-29T11:13:49.526Z,27.55
2023-04-29T11:14:49.265Z,27.55
2023-04-29T11:15:51.024Z,27.55
2023-04-29T11:16:49.776Z,27.55
2023-04-29T11:17:49.995Z,27.55
2023-04-29T11:18:50.156Z,27.55
2023-04-29T11:19:51.175Z,27.39
2023-04-29T11:20:50.489Z,27.55
2023-04-29T11:21:52.829Z,27.45
2023-04-29T11:22:51.509Z,27.55
2023-04-29T11:23:52.081Z,27.55
2023-04-29T11:24:53.515Z,27.55
2023-04-29T11:25:53.252Z,27.55
2023-04-29T11:26:53.517Z,27.55
2023-04-29T11:27:54.821Z,27.55
2023-04-29T11:28:54.538Z,27.55
2023-04-29T11:29:52.658Z,27.55
2023-04-29T11:30:54.297Z,27.55
2023-04-29T11:31:54.030Z,27.55
2023-04-29T11:32:55.659Z,27.55
2023-04-29T11:33:53.809Z,27.55
2023-04-29T11:34:55.913Z,27.34
2023-04-29T11:35:53.887Z,27.55
2023-04-29T11:36:55.416Z,27.55
2023-04-29T11:37:54.341Z,27.55
2023-04-29T11:38:55.541Z,27.55
2023-04-29T11:39:54.933Z,27.55
2023-04-29T11:40:55.298Z,27.55
2023-04-29T11:41:55.607Z,27.55
2023-04-29T11:42:55.893Z,27.55
2023-04-29T11:43:56.992Z,27.55
2023-04-29T11:44:56.264Z,27.55
2023-04-29T11:45:56.809Z,27.55
2023-04-29T11:46:56.562Z,27.55
2023-04-29T11:47:58.690Z,27.55
2023-04-29T11:48:56.869Z,27.55
2023-04-29T11:49:59.830Z,27.55
2023-04-29T11:50:58.148Z,27.55
2023-04-29T11:51:57.410Z,27.55
2023-04-29T11:52:57.895Z,27.55
2023-04-29T11:54:00.026Z,27.55
2023-04-29T11:54:57.776Z,27.55
2023-04-29T11:55:58.000Z,27.66
2023-04-29T11:56:58.339Z,27.55
2023-04-29T11:57:59.464Z,27.55
2023-04-29T11:59:00.687Z,27.55
2023-04-29T12:00:00.813Z,27.34
2023-04-29T12:00:58.941Z,27.55
2023-04-29T12:01:59.104Z,27.55
2023-04-29T12:02:59.521Z,27.55
2023-04-29T12:03:59.862Z,27.55
2023-04-29T12:04:59.924Z,27.34
2023-04-29T12:05:59.992Z,27.55
2023-04-29T12:07:02.185Z,27.55
2023-04-29T12:08:01.346Z,27.55
2023-04-29T12:09:01.431Z,27.55
2023-04-29T12:10:02.075Z,27.55
2023-04-29T12:11:00.752Z,27.55
2023-04-29T12:12:02.911Z,27.55
2023-04-29T12:13:01.324Z,27.55
2023-04-29T12:14:01.687Z,27.55
2023-04-29T12:15:01.916Z,27.55
2023-04-29T12:16:02.422Z,27.55
2023-04-29T12:17:02.095Z,27.66
2023-04-29T12:18:02.373Z,27.55
2023-04-29T12:19:02.608Z,27.55
2023-04-29T12:20:02.742Z,27.55
2023-04-29T12:21:02.899Z,27.55
2023-04-29T12:22:03.009Z,27.55
2023-04-29T12:23:03.194Z,27.55
2023-04-29T12:24:05.974Z,27.55
2023-04-29T12:25:03.913Z,27.55
2023-04-29T12:26:05.139Z,27.55
2023-04-29T12:27:06.239Z,27.55
2023-04-29T12:28:05.622Z,27.55
2023-04-29T12:29:04.700Z,27.55
2023-04-29T12:30:04.924Z,27.55
2023-04-29T12:31:05.032Z,27.55
2023-04-29T12:32:05.355Z,27.55
2023-04-29T12:33:05.583Z,27.55
2023-04-29T12:34:09.880Z,27.55
2023-04-29T12:35:07.990Z,27.55
2023-04-29T12:36:06.207Z,27.55
2023-04-29T12:37:08.843Z,27.55
2023-04-29T12:38:06.688Z,27.50
2023-04-29T12:39:06.912Z,27.71
2023-04-29T12:40:09.141Z,27.55
2023-04-29T12:41:07.472Z,27.55
2023-04-29T12:42:07.624Z,27.55
2023-04-29T12:43:09.731Z,27.55
2023-04-29T12:44:10.071Z,27.55
2023-04-29T12:45:10.696Z,27.55
2023-04-29T12:46:09.283Z,27.55
2023-04-29T12:47:08.514Z,27.55
2023-04-29T12:48:15.168Z,27.55
2023-04-29T12:49:08.949Z,27.55
2023-04-29T12:50:11.102Z,27.55
2023-04-29T12:51:09.313Z,27.55
2023-04-29T12:52:10.006Z,27.55
2023-04-29T12:53:11.640Z,27.55
2023-04-29T12:54:09.828Z,27.55
2023-04-29T12:55:13.265Z,27.55
2023-04-29T12:56:12.359Z,27.55
2023-04-29T12:57:11.467Z,27.55
2023-04-29T12:58:10.631Z,27.55
2023-04-29T12:59:12.723Z,27.55
2023-04-29T13:00:12.701Z,27.55
2023-04-29T13:01:11.830Z,27.55
2023-04-29T13:02:13.749Z,27.55
2023-04-29T13:03:12.109Z,27.55
2023-04-29T13:04:12.708Z,27.55
2023-04-29T13:05:35.571Z,27.55
2023-04-29T13:06:15.538Z,27.55
2023-04-29T13:07:13.787Z,27.55
2023-04-29T13:08:13.474Z,27.55
2023-04-29T13:09:18.581Z,27.55
2023-04-29T13:10:14.803Z,27.55
2023-04-29T13:11:13.988Z,27.55
2023-04-29T13:12:15.448Z,27.55
2023-04-29T13:13:15.127Z,27.55
2023-04-29T13:14:16.456Z,27.55
2023-04-29T13:15:16.108Z,27.55
2023-04-29T13:16:14.812Z,27.55
2023-04-29T13:17:16.969Z,27.55
2023-04-29T13:18:17.731Z,27.39
2023-04-29T13:19:30.522Z,27.55
2023-04-29T13:20:17.779Z,27.55
2023-04-29T13:21:18.916Z,27.55
2023-04-29T13:22:16.109Z,27.55